sensor_id;sensor_type;location;lat;lon;timestamp;P1;durP1;ratioP1;P2;durP2;ratioP2
51614;SDS011;37695;52.960;6.188;2023-02-11T00:00:56;11.30;;;3.90;;
51614;SDS011;37695;52.960;6.188;2023-02-11T00:03:21;15.68;;;4.97;;
51614;SDS011;37695;52.960;6.188;2023-02-11T00:05:59;17.88;;;4.22;;
51614;SDS011;37695;52.960;6.188;2023-02-11T00:08:26;20.02;;;5.28;;
51614;SDS011;37695;52.960;6.188;2023-02-11T00:10:52;18.17;;;4.35;;
51614;SDS011;37695;52.960;6.188;2023-02-11T00:13:19;15.85;;;4.60;;
51614;SDS011;37695;52.960;6.188;2023-02-11T00:15:44;14.95;;;5.45;;
51614;SDS011;37695;52.960;6.188;2023-02-11T00:18:10;17.08;;;4.65;;
51614;SDS011;37695;52.960;6.188;2023-02-11T00:20:37;14.27;;;4.28;;
51614;SDS011;37695;52.960;6.188;2023-02-11T00:23:03;17.95;;;4.50;;
51614;SDS011;37695;52.960;6.188;2023-02-11T00:25:29;16.63;;;4.38;;
51614;SDS011;37695;52.960;6.188;2023-02-11T00:27:55;16.65;;;4.65;;
51614;SDS011;37695;52.960;6.188;2023-02-11T00:30:21;17.08;;;4.97;;
51614;SDS011;37695;52.960;6.188;2023-02-11T00:32:47;17.20;;;4.57;;
51614;SDS011;37695;52.960;6.188;2023-02-11T00:35:12;15.82;;;4.55;;
51614;SDS011;37695;52.960;6.188;2023-02-11T00:37:38;14.10;;;4.20;;
51614;SDS011;37695;52.960;6.188;2023-02-11T00:40:04;12.23;;;4.38;;
51614;SDS011;37695;52.960;6.188;2023-02-11T00:42:30;16.20;;;4.93;;
51614;SDS011;37695;52.960;6.188;2023-02-11T00:44:55;13.75;;;4.47;;
51614;SDS011;37695;52.960;6.188;2023-02-11T00:47:21;15.18;;;4.43;;
51614;SDS011;37695;52.960;6.188;2023-02-11T00:49:47;16.52;;;4.43;;
51614;SDS011;37695;52.960;6.188;2023-02-11T00:52:12;16.30;;;4.97;;
51614;SDS011;37695;52.960;6.188;2023-02-11T00:54:38;12.35;;;4.25;;
51614;SDS011;37695;52.960;6.188;2023-02-11T00:57:04;20.90;;;4.90;;
51614;SDS011;37695;52.960;6.188;2023-02-11T00:59:29;12.82;;;3.97;;
51614;SDS011;37695;52.960;6.188;2023-02-11T01:01:55;14.02;;;4.72;;
51614;SDS011;37695;52.960;6.188;2023-02-11T01:04:20;15.38;;;4.47;;
51614;SDS011;37695;52.960;6.188;2023-02-11T01:06:46;13.60;;;4.82;;
51614;SDS011;37695;52.960;6.188;2023-02-11T01:09:12;17.30;;;4.97;;
51614;SDS011;37695;52.960;6.188;2023-02-11T01:11:37;19.40;;;5.15;;
51614;SDS011;37695;52.960;6.188;2023-02-11T01:14:03;13.73;;;4.72;;
51614;SDS011;37695;52.960;6.188;2023-02-11T01:16:28;17.27;;;4.80;;
51614;SDS011;37695;52.960;6.188;2023-02-11T01:18:54;14.40;;;5.28;;
51614;SDS011;37695;52.960;6.188;2023-02-11T01:21:20;13.20;;;4.80;;
51614;SDS011;37695;52.960;6.188;2023-02-11T01:23:45;15.07;;;5.43;;
51614;SDS011;37695;52.960;6.188;2023-02-11T01:26:11;14.55;;;4.75;;
51614;SDS011;37695;52.960;6.188;2023-02-11T01:28:37;13.95;;;5.20;;
51614;SDS011;37695;52.960;6.188;2023-02-11T01:31:02;15.15;;;4.53;;
51614;SDS011;37695;52.960;6.188;2023-02-11T01:33:28;13.32;;;4.60;;
51614;SDS011;37695;52.960;6.188;2023-02-11T01:35:54;14.70;;;5.20;;
51614;SDS011;37695;52.960;6.188;2023-02-11T01:38:23;13.10;;;4.93;;
51614;SDS011;37695;52.960;6.188;2023-02-11T01:41:04;12.65;;;4.72;;
51614;SDS011;37695;52.960;6.188;2023-02-11T01:43:33;14.40;;;5.50;;
51614;SDS011;37695;52.960;6.188;2023-02-11T01:46:03;13.20;;;4.90;;
51614;SDS011;37695;52.960;6.188;2023-02-11T01:48:45;16.77;;;5.50;;
51614;SDS011;37695;52.960;6.188;2023-02-11T01:53:46;14.13;;;5.13;;
51614;SDS011;37695;52.960;6.188;2023-02-11T01:56:32;18.15;;;6.45;;
51614;SDS011;37695;52.960;6.188;2023-02-11T01:59:21;15.73;;;6.38;;
51614;SDS011;37695;52.960;6.188;2023-02-11T02:01:55;18.05;;;6.32;;
51614;SDS011;37695;52.960;6.188;2023-02-11T02:04:24;13.50;;;5.60;;
51614;SDS011;37695;52.960;6.188;2023-02-11T02:06:58;18.48;;;6.30;;
51614;SDS011;37695;52.960;6.188;2023-02-11T02:09:32;14.43;;;6.00;;
51614;SDS011;37695;52.960;6.188;2023-02-11T02:12:04;15.32;;;5.97;;
51614;SDS011;37695;52.960;6.188;2023-02-11T02:14:29;16.45;;;6.80;;
51614;SDS011;37695;52.960;6.188;2023-02-11T02:16:55;20.83;;;6.32;;
51614;SDS011;37695;52.960;6.188;2023-02-11T02:22:23;15.90;;;6.60;;
51614;SDS011;37695;52.960;6.188;2023-02-11T02:39:06;17.75;;;7.97;;
51614;SDS011;37695;52.960;6.188;2023-02-11T02:41:35;18.00;;;7.50;;
51614;SDS011;37695;52.960;6.188;2023-02-11T02:44:03;17.52;;;8.20;;
51614;SDS011;37695;52.960;6.188;2023-02-11T02:46:32;15.63;;;8.23;;
51614;SDS011;37695;52.960;6.188;2023-02-11T02:48:59;16.17;;;8.15;;
51614;SDS011;37695;52.960;6.188;2023-02-11T02:51:36;14.15;;;7.63;;
51614;SDS011;37695;52.960;6.188;2023-02-11T02:54:19;16.27;;;8.07;;
51614;SDS011;37695;52.960;6.188;2023-02-11T02:57:36;15.40;;;7.43;;
51614;SDS011;37695;52.960;6.188;2023-02-11T03:02:43;17.20;;;7.65;;
51614;SDS011;37695;52.960;6.188;2023-02-11T03:05:42;19.40;;;8.15;;
51614;SDS011;37695;52.960;6.188;2023-02-11T03:08:30;19.10;;;8.27;;
51614;SDS011;37695;52.960;6.188;2023-02-11T03:11:02;15.32;;;8.05;;
51614;SDS011;37695;52.960;6.188;2023-02-11T03:13:31;18.05;;;7.75;;
51614;SDS011;37695;52.960;6.188;2023-02-11T03:16:01;18.63;;;8.15;;
51614;SDS011;37695;52.960;6.188;2023-02-11T03:18:33;15.43;;;8.07;;
51614;SDS011;37695;52.960;6.188;2023-02-11T03:21:00;15.88;;;9.05;;
51614;SDS011;37695;52.960;6.188;2023-02-11T03:23:34;15.50;;;8.20;;
51614;SDS011;37695;52.960;6.188;2023-02-11T03:26:10;13.07;;;7.28;;
51614;SDS011;37695;52.960;6.188;2023-02-11T03:28:48;13.60;;;6.78;;
51614;SDS011;37695;52.960;6.188;2023-02-11T03:31:45;15.18;;;8.07;;
51614;SDS011;37695;52.960;6.188;2023-02-11T03:37:17;19.27;;;9.02;;
51614;SDS011;37695;52.960;6.188;2023-02-11T03:39:45;19.90;;;9.35;;
51614;SDS011;37695;52.960;6.188;2023-02-11T03:42:15;16.63;;;8.25;;
51614;SDS011;37695;52.960;6.188;2023-02-11T03:44:52;19.95;;;9.70;;
51614;SDS011;37695;52.960;6.188;2023-02-11T03:47:40;17.05;;;8.85;;
51614;SDS011;37695;52.960;6.188;2023-02-11T03:50:11;19.13;;;9.95;;
51614;SDS011;37695;52.960;6.188;2023-02-11T03:52:38;15.68;;;9.43;;
51614;SDS011;37695;52.960;6.188;2023-02-11T03:55:06;15.98;;;9.07;;
51614;SDS011;37695;52.960;6.188;2023-02-11T03:57:36;18.65;;;9.57;;
51614;SDS011;37695;52.960;6.188;2023-02-11T04:00:02;15.40;;;8.80;;
51614;SDS011;37695;52.960;6.188;2023-02-11T04:02:30;18.08;;;9.23;;
51614;SDS011;37695;52.960;6.188;2023-02-11T04:04:58;20.33;;;8.90;;
51614;SDS011;37695;52.960;6.188;2023-02-11T04:07:24;21.33;;;9.82;;
51614;SDS011;37695;52.960;6.188;2023-02-11T04:09:50;17.70;;;10.02;;
51614;SDS011;37695;52.960;6.188;2023-02-11T04:12:16;17.73;;;9.63;;
51614;SDS011;37695;52.960;6.188;2023-02-11T04:14:42;18.10;;;9.20;;
51614;SDS011;37695;52.960;6.188;2023-02-11T04:17:07;20.67;;;10.32;;
51614;SDS011;37695;52.960;6.188;2023-02-11T04:19:33;23.15;;;10.85;;
51614;SDS011;37695;52.960;6.188;2023-02-11T04:21:59;20.23;;;9.45;;
51614;SDS011;37695;52.960;6.188;2023-02-11T04:24:25;22.38;;;10.52;;
51614;SDS011;37695;52.960;6.188;2023-02-11T04:26:50;17.20;;;10.93;;
51614;SDS011;37695;52.960;6.188;2023-02-11T04:29:16;19.98;;;10.95;;
51614;SDS011;37695;52.960;6.188;2023-02-11T04:31:42;19.45;;;10.57;;
51614;SDS011;37695;52.960;6.188;2023-02-11T04:34:08;18.55;;;10.50;;
51614;SDS011;37695;52.960;6.188;2023-02-11T04:36:33;18.75;;;11.77;;
51614;SDS011;37695;52.960;6.188;2023-02-11T04:38:59;24.17;;;11.57;;
51614;SDS011;37695;52.960;6.188;2023-02-11T04:41:25;19.30;;;11.77;;
51614;SDS011;37695;52.960;6.188;2023-02-11T04:43:50;25.25;;;12.27;;
51614;SDS011;37695;52.960;6.188;2023-02-11T04:46:16;25.40;;;12.90;;
51614;SDS011;37695;52.960;6.188;2023-02-11T04:48:41;19.20;;;11.32;;
51614;SDS011;37695;52.960;6.188;2023-02-11T04:51:07;19.00;;;11.05;;
51614;SDS011;37695;52.960;6.188;2023-02-11T04:53:32;21.48;;;11.60;;
51614;SDS011;37695;52.960;6.188;2023-02-11T04:55:58;20.13;;;11.70;;
51614;SDS011;37695;52.960;6.188;2023-02-11T04:58:23;20.42;;;11.43;;
51614;SDS011;37695;52.960;6.188;2023-02-11T05:00:49;19.45;;;11.23;;
51614;SDS011;37695;52.960;6.188;2023-02-11T05:03:15;25.77;;;13.27;;
51614;SDS011;37695;52.960;6.188;2023-02-11T05:05:41;18.20;;;11.18;;
51614;SDS011;37695;52.960;6.188;2023-02-11T05:08:07;21.85;;;11.98;;
51614;SDS011;37695;52.960;6.188;2023-02-11T05:10:34;22.38;;;12.20;;
51614;SDS011;37695;52.960;6.188;2023-02-11T05:13:00;21.10;;;10.55;;
51614;SDS011;37695;52.960;6.188;2023-02-11T05:15:26;20.80;;;11.70;;
51614;SDS011;37695;52.960;6.188;2023-02-11T05:17:52;21.63;;;13.00;;
51614;SDS011;37695;52.960;6.188;2023-02-11T05:20:17;26.27;;;12.27;;
51614;SDS011;37695;52.960;6.188;2023-02-11T05:22:43;20.42;;;12.25;;
51614;SDS011;37695;52.960;6.188;2023-02-11T05:25:08;21.95;;;11.88;;
51614;SDS011;37695;52.960;6.188;2023-02-11T05:27:34;22.95;;;11.95;;
51614;SDS011;37695;52.960;6.188;2023-02-11T05:30:00;21.75;;;12.88;;
51614;SDS011;37695;52.960;6.188;2023-02-11T05:32:25;23.52;;;12.50;;
51614;SDS011;37695;52.960;6.188;2023-02-11T05:34:51;24.02;;;13.00;;
51614;SDS011;37695;52.960;6.188;2023-02-11T05:37:16;25.90;;;12.82;;
51614;SDS011;37695;52.960;6.188;2023-02-11T05:39:42;22.13;;;12.88;;
51614;SDS011;37695;52.960;6.188;2023-02-11T05:42:07;19.48;;;11.90;;
51614;SDS011;37695;52.960;6.188;2023-02-11T05:44:33;24.92;;;12.85;;
51614;SDS011;37695;52.960;6.188;2023-02-11T05:46:59;21.45;;;13.80;;
51614;SDS011;37695;52.960;6.188;2023-02-11T05:49:24;18.48;;;12.95;;
51614;SDS011;37695;52.960;6.188;2023-02-11T05:51:50;22.60;;;12.90;;
51614;SDS011;37695;52.960;6.188;2023-02-11T05:54:15;22.25;;;13.30;;
51614;SDS011;37695;52.960;6.188;2023-02-11T05:56:41;22.95;;;14.20;;
51614;SDS011;37695;52.960;6.188;2023-02-11T05:59:07;22.95;;;13.23;;
51614;SDS011;37695;52.960;6.188;2023-02-11T06:01:33;24.08;;;14.18;;
51614;SDS011;37695;52.960;6.188;2023-02-11T06:03:59;22.98;;;12.68;;
51614;SDS011;37695;52.960;6.188;2023-02-11T06:06:24;22.15;;;14.10;;
51614;SDS011;37695;52.960;6.188;2023-02-11T06:08:50;23.98;;;14.45;;
51614;SDS011;37695;52.960;6.188;2023-02-11T06:11:16;23.88;;;14.20;;
51614;SDS011;37695;52.960;6.188;2023-02-11T06:13:42;24.88;;;14.15;;
51614;SDS011;37695;52.960;6.188;2023-02-11T06:16:08;24.50;;;15.38;;
51614;SDS011;37695;52.960;6.188;2023-02-11T06:18:33;25.05;;;13.90;;
51614;SDS011;37695;52.960;6.188;2023-02-11T06:20:59;27.77;;;15.02;;
51614;SDS011;37695;52.960;6.188;2023-02-11T06:23:25;26.73;;;15.18;;
51614;SDS011;37695;52.960;6.188;2023-02-11T06:25:51;22.88;;;14.95;;
51614;SDS011;37695;52.960;6.188;2023-02-11T06:28:17;25.02;;;14.52;;
51614;SDS011;37695;52.960;6.188;2023-02-11T06:30:43;27.00;;;16.05;;
51614;SDS011;37695;52.960;6.188;2023-02-11T06:33:09;28.55;;;16.17;;
51614;SDS011;37695;52.960;6.188;2023-02-11T06:35:37;23.98;;;15.70;;
51614;SDS011;37695;52.960;6.188;2023-02-11T06:38:03;22.38;;;14.90;;
51614;SDS011;37695;52.960;6.188;2023-02-11T06:40:28;22.88;;;14.80;;
51614;SDS011;37695;52.960;6.188;2023-02-11T06:42:54;26.02;;;15.35;;
51614;SDS011;37695;52.960;6.188;2023-02-11T06:45:19;22.95;;;14.90;;
51614;SDS011;37695;52.960;6.188;2023-02-11T06:47:45;27.95;;;15.93;;
51614;SDS011;37695;52.960;6.188;2023-02-11T06:50:12;22.58;;;14.20;;
51614;SDS011;37695;52.960;6.188;2023-02-11T06:52:38;25.13;;;15.00;;
51614;SDS011;37695;52.960;6.188;2023-02-11T06:55:04;23.77;;;15.55;;
51614;SDS011;37695;52.960;6.188;2023-02-11T06:57:30;28.73;;;15.30;;
51614;SDS011;37695;52.960;6.188;2023-02-11T06:59:56;23.88;;;14.40;;
51614;SDS011;37695;52.960;6.188;2023-02-11T07:02:21;28.10;;;14.65;;
51614;SDS011;37695;52.960;6.188;2023-02-11T07:04:47;22.80;;;14.23;;
51614;SDS011;37695;52.960;6.188;2023-02-11T07:07:12;27.95;;;16.02;;
51614;SDS011;37695;52.960;6.188;2023-02-11T07:09:38;21.92;;;14.57;;
51614;SDS011;37695;52.960;6.188;2023-02-11T07:12:04;25.13;;;15.20;;
51614;SDS011;37695;52.960;6.188;2023-02-11T07:14:29;28.20;;;16.40;;
51614;SDS011;37695;52.960;6.188;2023-02-11T07:16:55;24.77;;;14.55;;
51614;SDS011;37695;52.960;6.188;2023-02-11T07:19:20;27.55;;;15.15;;
51614;SDS011;37695;52.960;6.188;2023-02-11T07:21:46;21.27;;;13.90;;
51614;SDS011;37695;52.960;6.188;2023-02-11T07:24:12;22.65;;;14.48;;
51614;SDS011;37695;52.960;6.188;2023-02-11T07:26:38;23.50;;;14.75;;
51614;SDS011;37695;52.960;6.188;2023-02-11T07:29:04;27.95;;;15.75;;
51614;SDS011;37695;52.960;6.188;2023-02-11T07:31:30;22.75;;;13.60;;
51614;SDS011;37695;52.960;6.188;2023-02-11T07:33:57;26.45;;;15.40;;
51614;SDS011;37695;52.960;6.188;2023-02-11T07:36:24;28.05;;;15.60;;
51614;SDS011;37695;52.960;6.188;2023-02-11T07:38:51;22.08;;;14.35;;
51614;SDS011;37695;52.960;6.188;2023-02-11T07:41:17;23.05;;;14.73;;
51614;SDS011;37695;52.960;6.188;2023-02-11T07:43:44;26.58;;;15.23;;
51614;SDS011;37695;52.960;6.188;2023-02-11T07:46:12;24.77;;;15.07;;
51614;SDS011;37695;52.960;6.188;2023-02-11T07:48:42;26.65;;;15.18;;
51614;SDS011;37695;52.960;6.188;2023-02-11T07:51:09;27.08;;;16.13;;
51614;SDS011;37695;52.960;6.188;2023-02-11T07:53:36;19.38;;;13.63;;
51614;SDS011;37695;52.960;6.188;2023-02-11T07:56:03;25.60;;;15.50;;
51614;SDS011;37695;52.960;6.188;2023-02-11T07:58:29;25.00;;;14.60;;
51614;SDS011;37695;52.960;6.188;2023-02-11T08:01:00;25.45;;;15.15;;
51614;SDS011;37695;52.960;6.188;2023-02-11T08:03:26;22.95;;;14.65;;
51614;SDS011;37695;52.960;6.188;2023-02-11T08:05:52;26.15;;;14.02;;
51614;SDS011;37695;52.960;6.188;2023-02-11T08:08:17;21.85;;;14.20;;
51614;SDS011;37695;52.960;6.188;2023-02-11T08:10:43;26.08;;;15.85;;
51614;SDS011;37695;52.960;6.188;2023-02-11T08:13:08;26.17;;;14.18;;
51614;SDS011;37695;52.960;6.188;2023-02-11T08:15:34;24.63;;;15.05;;
51614;SDS011;37695;52.960;6.188;2023-02-11T08:17:59;22.65;;;13.55;;
51614;SDS011;37695;52.960;6.188;2023-02-11T08:20:25;23.42;;;14.68;;
51614;SDS011;37695;52.960;6.188;2023-02-11T08:22:51;25.83;;;14.57;;
51614;SDS011;37695;52.960;6.188;2023-02-11T08:25:16;24.85;;;13.75;;
51614;SDS011;37695;52.960;6.188;2023-02-11T08:27:42;25.98;;;15.88;;
51614;SDS011;37695;52.960;6.188;2023-02-11T08:30:07;28.33;;;14.85;;
51614;SDS011;37695;52.960;6.188;2023-02-11T08:32:33;22.02;;;14.00;;
51614;SDS011;37695;52.960;6.188;2023-02-11T08:34:59;21.70;;;13.88;;
51614;SDS011;37695;52.960;6.188;2023-02-11T08:37:25;26.70;;;14.75;;
51614;SDS011;37695;52.960;6.188;2023-02-11T08:39:50;20.50;;;14.07;;
51614;SDS011;37695;52.960;6.188;2023-02-11T08:42:16;22.73;;;14.23;;
51614;SDS011;37695;52.960;6.188;2023-02-11T08:44:41;20.55;;;12.73;;
51614;SDS011;37695;52.960;6.188;2023-02-11T08:47:07;24.08;;;15.10;;
51614;SDS011;37695;52.960;6.188;2023-02-11T08:49:33;25.33;;;15.20;;
51614;SDS011;37695;52.960;6.188;2023-02-11T08:51:59;20.13;;;12.75;;
51614;SDS011;37695;52.960;6.188;2023-02-11T08:54:28;22.98;;;14.85;;
51614;SDS011;37695;52.960;6.188;2023-02-11T08:56:54;26.02;;;15.07;;
51614;SDS011;37695;52.960;6.188;2023-02-11T08:59:20;19.50;;;13.50;;
51614;SDS011;37695;52.960;6.188;2023-02-11T09:01:45;20.17;;;12.02;;
51614;SDS011;37695;52.960;6.188;2023-02-11T09:04:11;21.88;;;13.05;;
51614;SDS011;37695;52.960;6.188;2023-02-11T09:06:37;22.52;;;12.10;;
51614;SDS011;37695;52.960;6.188;2023-02-11T09:09:03;20.13;;;11.73;;
51614;SDS011;37695;52.960;6.188;2023-02-11T09:11:30;19.08;;;12.60;;
51614;SDS011;37695;52.960;6.188;2023-02-11T09:13:59;17.88;;;11.38;;
51614;SDS011;37695;52.960;6.188;2023-02-11T09:16:27;16.27;;;10.25;;
51614;SDS011;37695;52.960;6.188;2023-02-11T09:18:55;21.67;;;13.13;;
51614;SDS011;37695;52.960;6.188;2023-02-11T09:21:21;17.83;;;11.05;;
51614;SDS011;37695;52.960;6.188;2023-02-11T09:23:47;19.02;;;11.48;;
51614;SDS011;37695;52.960;6.188;2023-02-11T09:28:40;18.33;;;11.25;;
51614;SDS011;37695;52.960;6.188;2023-02-11T09:31:06;16.73;;;10.10;;
51614;SDS011;37695;52.960;6.188;2023-02-11T09:33:34;18.38;;;10.45;;
51614;SDS011;37695;52.960;6.188;2023-02-11T09:36:00;17.30;;;10.70;;
51614;SDS011;37695;52.960;6.188;2023-02-11T09:38:27;16.45;;;9.57;;
51614;SDS011;37695;52.960;6.188;2023-02-11T09:40:53;15.75;;;10.48;;
51614;SDS011;37695;52.960;6.188;2023-02-11T09:43:19;14.55;;;8.90;;
51614;SDS011;37695;52.960;6.188;2023-02-11T09:45:49;15.60;;;9.23;;
51614;SDS011;37695;52.960;6.188;2023-02-11T09:48:18;15.48;;;9.00;;
51614;SDS011;37695;52.960;6.188;2023-02-11T09:50:46;18.83;;;10.18;;
51614;SDS011;37695;52.960;6.188;2023-02-11T09:53:26;15.73;;;8.77;;
51614;SDS011;37695;52.960;6.188;2023-02-11T09:55:56;16.40;;;8.40;;
51614;SDS011;37695;52.960;6.188;2023-02-11T09:58:28;15.18;;;7.53;;
51614;SDS011;37695;52.960;6.188;2023-02-11T10:01:06;15.13;;;8.20;;
51614;SDS011;37695;52.960;6.188;2023-02-11T10:09:19;13.50;;;7.32;;
51614;SDS011;37695;52.960;6.188;2023-02-11T10:22:48;15.25;;;7.15;;
51614;SDS011;37695;52.960;6.188;2023-02-11T10:25:27;9.85;;;6.25;;
51614;SDS011;37695;52.960;6.188;2023-02-11T10:28:12;10.18;;;5.22;;
51614;SDS011;37695;52.960;6.188;2023-02-11T10:30:41;12.40;;;6.50;;
51614;SDS011;37695;52.960;6.188;2023-02-11T10:35:59;11.48;;;6.05;;
51614;SDS011;37695;52.960;6.188;2023-02-11T10:38:25;11.77;;;6.53;;
51614;SDS011;37695;52.960;6.188;2023-02-11T10:40:51;12.65;;;5.22;;
51614;SDS011;37695;52.960;6.188;2023-02-11T10:43:18;15.38;;;6.53;;
51614;SDS011;37695;52.960;6.188;2023-02-11T10:45:48;12.73;;;6.32;;
51614;SDS011;37695;52.960;6.188;2023-02-11T10:56:18;13.27;;;5.53;;
51614;SDS011;37695;52.960;6.188;2023-02-11T10:58:57;10.30;;;4.80;;
51614;SDS011;37695;52.960;6.188;2023-02-11T11:01:36;9.13;;;5.07;;
51614;SDS011;37695;52.960;6.188;2023-02-11T11:04:26;12.48;;;5.05;;
51614;SDS011;37695;52.960;6.188;2023-02-11T11:09:44;9.70;;;5.20;;
51614;SDS011;37695;52.960;6.188;2023-02-11T11:17:33;9.70;;;4.32;;
51614;SDS011;37695;52.960;6.188;2023-02-11T11:22:43;13.60;;;4.20;;
51614;SDS011;37695;52.960;6.188;2023-02-11T11:25:23;8.80;;;4.13;;
51614;SDS011;37695;52.960;6.188;2023-02-11T11:27:55;12.05;;;5.57;;
51614;SDS011;37695;52.960;6.188;2023-02-11T11:30:24;9.02;;;3.78;;
51614;SDS011;37695;52.960;6.188;2023-02-11T11:32:55;9.50;;;4.40;;
51614;SDS011;37695;52.960;6.188;2023-02-11T11:35:28;8.45;;;3.83;;
51614;SDS011;37695;52.960;6.188;2023-02-11T11:37:57;10.95;;;4.30;;
51614;SDS011;37695;52.960;6.188;2023-02-11T11:40:29;9.73;;;4.82;;
51614;SDS011;37695;52.960;6.188;2023-02-11T11:43:14;10.05;;;3.72;;
51614;SDS011;37695;52.960;6.188;2023-02-11T11:45:56;9.07;;;3.83;;
51614;SDS011;37695;52.960;6.188;2023-02-11T11:48:27;8.05;;;3.88;;
51614;SDS011;37695;52.960;6.188;2023-02-11T11:50:57;10.23;;;4.37;;
51614;SDS011;37695;52.960;6.188;2023-02-11T11:56:33;12.73;;;3.85;;
51614;SDS011;37695;52.960;6.188;2023-02-11T11:59:11;10.85;;;3.92;;
51614;SDS011;37695;52.960;6.188;2023-02-11T12:02:01;8.57;;;3.45;;
51614;SDS011;37695;52.960;6.188;2023-02-11T12:15:32;10.38;;;3.70;;
51614;SDS011;37695;52.960;6.188;2023-02-11T12:18:10;11.40;;;2.92;;
51614;SDS011;37695;52.960;6.188;2023-02-11T12:23:49;10.57;;;2.83;;
51614;SDS011;37695;52.960;6.188;2023-02-11T12:26:35;9.65;;;3.13;;
51614;SDS011;37695;52.960;6.188;2023-02-11T12:32:08;10.63;;;2.90;;
51614;SDS011;37695;52.960;6.188;2023-02-11T12:49:00;9.65;;;2.47;;
51614;SDS011;37695;52.960;6.188;2023-02-11T12:57:22;6.28;;;2.55;;
51614;SDS011;37695;52.960;6.188;2023-02-11T13:02:32;13.30;;;3.40;;
51614;SDS011;37695;52.960;6.188;2023-02-11T13:05:22;9.95;;;2.80;;
51614;SDS011;37695;52.960;6.188;2023-02-11T13:08:01;6.07;;;2.55;;
51614;SDS011;37695;52.960;6.188;2023-02-11T13:10:33;10.38;;;3.38;;
51614;SDS011;37695;52.960;6.188;2023-02-11T13:13:02;11.20;;;3.35;;
51614;SDS011;37695;52.960;6.188;2023-02-11T13:15:49;10.35;;;3.78;;
51614;SDS011;37695;52.960;6.188;2023-02-11T13:21:18;11.35;;;3.15;;
51614;SDS011;37695;52.960;6.188;2023-02-11T13:23:58;11.98;;;4.05;;
51614;SDS011;37695;52.960;6.188;2023-02-11T13:31:53;12.38;;;3.55;;
51614;SDS011;37695;52.960;6.188;2023-02-11T13:34:52;11.23;;;3.65;;
51614;SDS011;37695;52.960;6.188;2023-02-11T13:37:12;7.80;;;3.25;;
51614;SDS011;37695;52.960;6.188;2023-02-11T13:39:55;7.88;;;3.08;;
51614;SDS011;37695;52.960;6.188;2023-02-11T13:42:25;7.60;;;2.90;;
51614;SDS011;37695;52.960;6.188;2023-02-11T13:44:51;11.27;;;3.03;;
51614;SDS011;37695;52.960;6.188;2023-02-11T13:47:30;11.90;;;3.38;;
51614;SDS011;37695;52.960;6.188;2023-02-11T13:49:58;7.95;;;2.42;;
51614;SDS011;37695;52.960;6.188;2023-02-11T13:52:27;9.85;;;3.03;;
51614;SDS011;37695;52.960;6.188;2023-02-11T13:55:20;8.88;;;2.85;;
51614;SDS011;37695;52.960;6.188;2023-02-11T14:11:44;10.15;;;3.05;;
51614;SDS011;37695;52.960;6.188;2023-02-11T14:19:29;10.35;;;3.05;;
51614;SDS011;37695;52.960;6.188;2023-02-11T14:22:04;8.15;;;2.78;;
51614;SDS011;37695;52.960;6.188;2023-02-11T14:27:10;10.32;;;3.03;;
51614;SDS011;37695;52.960;6.188;2023-02-11T14:35:40;9.40;;;3.13;;
51614;SDS011;37695;52.960;6.188;2023-02-11T14:41:07;11.45;;;2.55;;
51614;SDS011;37695;52.960;6.188;2023-02-11T14:43:48;7.47;;;2.20;;
51614;SDS011;37695;52.960;6.188;2023-02-11T14:46:20;9.80;;;2.63;;
51614;SDS011;37695;52.960;6.188;2023-02-11T14:48:49;14.82;;;2.97;;
51614;SDS011;37695;52.960;6.188;2023-02-11T14:51:23;8.43;;;2.92;;
51614;SDS011;37695;52.960;6.188;2023-02-11T14:53:52;6.85;;;2.28;;
51614;SDS011;37695;52.960;6.188;2023-02-11T14:58:52;6.95;;;2.10;;
51614;SDS011;37695;52.960;6.188;2023-02-11T15:01:32;9.55;;;2.80;;
51614;SDS011;37695;52.960;6.188;2023-02-11T15:04:00;7.55;;;2.75;;
51614;SDS011;37695;52.960;6.188;2023-02-11T15:06:37;7.97;;;3.08;;
51614;SDS011;37695;52.960;6.188;2023-02-11T15:09:05;11.02;;;2.65;;
51614;SDS011;37695;52.960;6.188;2023-02-11T15:11:39;11.00;;;2.83;;
51614;SDS011;37695;52.960;6.188;2023-02-11T15:14:08;9.02;;;2.55;;
51614;SDS011;37695;52.960;6.188;2023-02-11T15:16:45;8.45;;;2.53;;
51614;SDS011;37695;52.960;6.188;2023-02-11T15:21:57;9.80;;;2.63;;
51614;SDS011;37695;52.960;6.188;2023-02-11T15:24:24;8.10;;;2.17;;
51614;SDS011;37695;52.960;6.188;2023-02-11T15:27:02;6.22;;;2.08;;
51614;SDS011;37695;52.960;6.188;2023-02-11T15:29:40;9.63;;;2.63;;
51614;SDS011;37695;52.960;6.188;2023-02-11T15:32:20;7.60;;;2.20;;
51614;SDS011;37695;52.960;6.188;2023-02-11T15:34:48;7.32;;;2.22;;
51614;SDS011;37695;52.960;6.188;2023-02-11T15:37:18;9.40;;;2.40;;
51614;SDS011;37695;52.960;6.188;2023-02-11T15:39:46;10.80;;;2.70;;
51614;SDS011;37695;52.960;6.188;2023-02-11T15:44:48;6.90;;;2.20;;
51614;SDS011;37695;52.960;6.188;2023-02-11T15:47:16;8.30;;;1.90;;
51614;SDS011;37695;52.960;6.188;2023-02-11T15:49:45;7.75;;;2.42;;
51614;SDS011;37695;52.960;6.188;2023-02-11T15:52:14;8.70;;;2.38;;
51614;SDS011;37695;52.960;6.188;2023-02-11T15:54:47;6.70;;;2.30;;
51614;SDS011;37695;52.960;6.188;2023-02-11T15:57:13;8.55;;;2.47;;
51614;SDS011;37695;52.960;6.188;2023-02-11T15:59:43;7.32;;;2.50;;
51614;SDS011;37695;52.960;6.188;2023-02-11T16:02:31;7.90;;;2.38;;
51614;SDS011;37695;52.960;6.188;2023-02-11T16:04:59;9.25;;;2.78;;
51614;SDS011;37695;52.960;6.188;2023-02-11T16:10:33;11.25;;;2.47;;
51614;SDS011;37695;52.960;6.188;2023-02-11T16:18:18;10.27;;;2.80;;
51614;SDS011;37695;52.960;6.188;2023-02-11T16:20:50;11.18;;;3.13;;
51614;SDS011;37695;52.960;6.188;2023-02-11T16:23:19;8.48;;;2.85;;
51614;SDS011;37695;52.960;6.188;2023-02-11T16:25:53;8.35;;;2.28;;
51614;SDS011;37695;52.960;6.188;2023-02-11T16:28:40;9.95;;;2.45;;
51614;SDS011;37695;52.960;6.188;2023-02-11T16:31:05;7.80;;;2.15;;
51614;SDS011;37695;52.960;6.188;2023-02-11T16:33:31;9.25;;;2.42;;
51614;SDS011;37695;52.960;6.188;2023-02-11T16:35:57;8.35;;;2.75;;
51614;SDS011;37695;52.960;6.188;2023-02-11T16:38:26;9.55;;;2.75;;
51614;SDS011;37695;52.960;6.188;2023-02-11T16:40:51;9.50;;;2.40;;
51614;SDS011;37695;52.960;6.188;2023-02-11T16:43:18;7.30;;;2.30;;
51614;SDS011;37695;52.960;6.188;2023-02-11T16:45:44;5.95;;;2.03;;
51614;SDS011;37695;52.960;6.188;2023-02-11T16:48:11;10.57;;;2.60;;
51614;SDS011;37695;52.960;6.188;2023-02-11T16:50:45;6.43;;;2.10;;
51614;SDS011;37695;52.960;6.188;2023-02-11T16:53:14;7.65;;;2.40;;
51614;SDS011;37695;52.960;6.188;2023-02-11T16:55:45;9.35;;;2.40;;
51614;SDS011;37695;52.960;6.188;2023-02-11T16:58:10;8.20;;;2.78;;
51614;SDS011;37695;52.960;6.188;2023-02-11T17:00:36;6.75;;;2.05;;
51614;SDS011;37695;52.960;6.188;2023-02-11T17:03:10;9.73;;;2.20;;
51614;SDS011;37695;52.960;6.188;2023-02-11T17:05:46;11.70;;;2.65;;
51614;SDS011;37695;52.960;6.188;2023-02-11T17:08:12;9.18;;;2.47;;
51614;SDS011;37695;52.960;6.188;2023-02-11T17:10:38;13.85;;;2.60;;
51614;SDS011;37695;52.960;6.188;2023-02-11T17:13:04;8.85;;;2.63;;
51614;SDS011;37695;52.960;6.188;2023-02-11T17:15:30;8.18;;;2.88;;
51614;SDS011;37695;52.960;6.188;2023-02-11T17:17:56;9.43;;;2.35;;
51614;SDS011;37695;52.960;6.188;2023-02-11T17:20:22;13.63;;;2.65;;
51614;SDS011;37695;52.960;6.188;2023-02-11T17:22:48;6.95;;;2.10;;
51614;SDS011;37695;52.960;6.188;2023-02-11T17:25:13;8.38;;;2.58;;
51614;SDS011;37695;52.960;6.188;2023-02-11T17:27:39;11.82;;;2.55;;
51614;SDS011;37695;52.960;6.188;2023-02-11T17:30:05;11.05;;;2.30;;